Aérodrome :
LOGIN :

S'inscrire | Disclaimer

   EN    FR    IT 

 










Légende :    VFR   VFR Marginal   IFR   IFR Intensif   IFR Très Intensif
Visi : 
Plafond : 
>= 8 km
>= 3000ft
5 à 8 km
1000 à 3000 ft
1500m à 5 km
500 à 1000 ft
800 à 1500m
200 à 500 ft
< 800m
< 200 ft
Symboles :   Orages  Brouillard  Fortes neiges  Fortes précipitations  Vent > 20 kt
SIGMETs :   Divers  Orages  Givrage  Turbulence  Onde Orograph.  Cendres Volcan.






- Altitude de l'aérodrome : 233 ft
- Code IATA : REU


LERS - Reus Tarragona

DERNIER METAR :
  • 240130Z AUTO 03005KT CAVOK 18/16 Q1011

METARs EXPIRÉS :
  • 240100Z AUTO VRB02KT CAVOK 18/16 Q1012
  • 240030Z AUTO 03003KT 340V060 CAVOK 19/16 Q1012
  • 240000Z AUTO 03004KT 340V070 CAVOK 20/16 Q1012
  • 232330Z AUTO 01005KT 320V040 CAVOK 20/17 Q1012
  • 232300Z AUTO 05003KT CAVOK 20/17 Q1012

TAF TAF LERS
Valide du 23 à 21h jusqu'au 24 à 21h UTC


232000Z 2321/2421 22010KT 9999 FEW030 TX29/2412Z TN18/2406Z
BECMG 2400/2402 VRB03KT
BECMG 2410/2412 25010KT



MET'MAP, la Météo Aéronautique d'un coup d'oeil ! - Copyright ORBIFLY Décembre 2007 - Disclaimer

ORBIFLY MET'MAP TEAM :

Programmation & Développement : Alexandra Zaïnal
Sur une idée originale de : Baudouin d'Aumeries
Assistance à la programmation : Marc-Olivier Méhu
Soutien technique & logistique : Manuel Goepfert

Contact : metmap@orbifly.com




SOURCES & CREDITS :

   NOAA